Tiempo atmosférico en la estación meteorológica de Tarazona, Zaragoza (475 m.)



Fecha
DESCASC
Temp. máxima en grados centígrados (hora)
DESCASC
Temp. mínima en grados centígrados (hora)
DESCASC
Temp. media en grados centígrados
DESCASC
Racha de viento máxima en m/sg (hora)
DESCASC
Velocidad máxima media en intervalos de 10 minutos(hora)
DESCASC
Precipitaciones diarias en mm
DESCASC
Precipitaciones de 00:00 a 06:00 en mm
DESCASC
Precipitaciones de 06:00 a 12:00 en mm
DESCASC
Precipitaciones de 12:00 a 18:00 en mm
DESCASC
Precipitaciones de 18:00 a 24:00 en mm
DESCASC
16-04-2019 19 (17:30) 8.6 (07:50) 13.8 9.17 (00:10) 5.28 (00:10) 3.6 3.6 0 0 0
15-04-2019 22.5 (16:00) 9.5 (07:30) 16 14.17 (15:50) 7.78 (17:30) 4.6 0 0 0 4.6
14-04-2019 24 (17:00) 9.1 (04:30) 16.6 9.44 (18:40) 5.83 (18:40) 0 0 0 0 0
13-04-2019 21.2 (17:00) 2 (00:00) 11.6 7.78 (11:20) 4.44 (11:30) 0 0 0 0 0
12-04-2019 16.7 (16:50) 5.5 (06:10) 11.1 14.72 (11:00) 6.94 (10:10) 0 0 0 0 0
11-04-2019 14 (15:50) 7.1 (00:00) 10.5 15.83 (15:40) 7.5 (15:30) 0 0 0 0 0
10-04-2019 14.5 (18:00) 4.3 (00:00) 9.4 12.5 (14:40) 7.5 (19:50) 0 0 0 0 0
09-04-2019 17 (14:40) 7.5 (00:00) 12.3 13.61 (10:40) 6.67 (12:00) 2 0 0 0 2
08-04-2019 17.1 (13:00) 7.2 (00:00) 12.2 10.28 (00:50) 5.83 (01:20) 3 2 0 1 0
07-04-2019 14 (17:10) 4.3 (00:00) 9.2 11.67 (23:40) 5.83 (23:40) 1 0.8 0.2 0 0
06-04-2019 12.5 (15:50) 4.9 (00:00) 8.7 14.72 (09:30) 7.22 (15:00) 0.2 0 0 0 0.2
05-04-2019 11.9 (14:20) 5.2 (00:00) 8.5 11.11 (17:40) 6.67 (01:00) 0.4 0 0 0 0.4
04-04-2019 14.8 (17:50) -0.1 (00:00) 7.4 8.61 (16:50) 5.28 (16:40) 0 0 0 0 0
03-04-2019 9.2 (00:00) 2.6 (23:59) 5.9 10.28 (17:50) 5.56 (17:40) 5 0 0.4 3.8 0.8
02-04-2019 17.1 (16:20) 5.2 (00:00) 11.2 8.89 (21:40) 4.72 (21:40) 0 0 0 0 0
01-04-2019 14.3 (16:10) 7.4 (00:00) 10.9 6.39 (18:40) 3.61 (18:40) 6.4 1.8 0 0.4 4.2
31-03-2019 12.9 (15:40) 3 (00:00) 7.9 6.94 (13:30) 4.17 (13:00) 4 0 0 0 4
30-03-2019 17.6 (16:30) 2.6 (00:00) 10.1 10.28 (14:50) 6.11 (14:50) 0 0 0 0 0
29-03-2019 18.1 (16:40) 2.3 (00:00) 10.2 12.22 (15:00) 6.39 (15:00) 0 0 0 0 0
28-03-2019 18.2 (16:30) 3.8 (00:00) 11 10.83 (14:20) 4.44 (10:00) 0 0 0 0 0
27-03-2019 18.9 (15:10) 3.1 (00:00) 11 12.78 (17:40) 6.94 (17:40) 0 0 0 0 0
26-03-2019 18.6 (15:30) 5.2 (00:00) 11.9 11.94 (17:00) 7.22 (18:50) 0 0 0 0 0
25-03-2019 15.4 (15:40) 7.8 (00:00) 11.6 15.83 (14:40) 8.06 (14:40) 0 0 0 0 0
24-03-2019 22.6 (15:40) 6.4 (00:00) 14.5 8.06 (18:00) 4.44 (22:40) 0 0 0 0 0
23-03-2019 20.9 (16:50) 5.8 (00:00) 13.3 6.39 (16:30) 3.61 (15:10) 0 0 0 0 0
22-03-2019 18.1 (15:00) 2.7 (00:00) 10.4 8.61 (17:40) 4.44 (13:50) 0 0 0 0 0
21-03-2019 15.4 (16:30) 2 (00:00) 8.7 7.5 (10:40) 3.89 (10:30) 0 0 0 0 0
20-03-2019 13.9 (15:30) 4.6 (00:00) 9.2 13.33 (11:40) 6.67 (10:00) 0 0 0 0 0
19-03-2019 12.2 (15:40) 5.9 (00:00) 9 17.5 (16:40) 8.89 (16:00) 0 0 0 0 0

Gráficas

Temp. máximas Temp. mínimas Temp. medias Precipitaciones Rachas de viento máximas Velocidades máximas media en intervalos de 10 minutos

Datos horarios

Fecha y hora oficial Temperatura (ºC) Velocidad del viento (km/h) Dirección del viento Racha (km/h) Dirección de racha Precipitación (mm) Presión (hPa) Tendencia (hPa) Humedad (%)
2019-04-17 23:00:00 14.5 16 Este 30 Este 0 -- -- 70
2019-04-17 22:00:00 15.5 7 Este 34 Este 0 -- -- 60
2019-04-17 21:00:00 16.5 14 Este 37 Sudeste 0 -- -- 60
2019-04-17 20:00:00 17.7 14 Sudeste 38 Sudeste 0 -- -- 56
2019-04-17 19:00:00 18.6 19 Sudeste 36 Sudeste 0 -- -- 54
2019-04-17 18:00:00 19 17 Sudeste 42 Sudeste 0 -- -- 53
2019-04-17 17:00:00 19 19 Sudeste 43 Este 0 -- -- 55
2019-04-17 16:00:00 19.1 18 Sudeste 42 Este 0 -- -- 56
2019-04-17 15:00:00 18.2 21 Este 42 Este 0 -- -- 56
2019-04-17 14:00:00 16.3 22 Sudeste 42 Sudeste 0 -- -- 62
2019-04-17 13:00:00 14.9 16 Sudeste 31 Este 0 -- -- 66
2019-04-17 12:00:00 12.2 14 Este 31 Sudeste 0 -- -- 76
2019-04-17 11:00:00 11.4 14 Sudeste 30 Sudeste 0 -- -- 78
2019-04-17 10:00:00 10.9 13 Sudeste 26 Sudeste 0 -- -- 79
2019-04-17 09:00:00 10.2 13 Sudeste 27 Sudeste 0 -- -- 80
2019-04-17 08:00:00 9.1 8 Sudeste 21 Este 0 -- -- 87
2019-04-17 07:00:00 9.2 6 Sudeste 23 Sudeste 0 -- -- 86
2019-04-17 06:00:00 9.4 8 Este 23 Sudeste 0 -- -- 84
2019-04-17 05:00:00 9.8 13 Sudeste 33 Sudeste 0 -- -- 80
2019-04-17 04:00:00 9.7 10 Sudeste 26 Sudeste 0 -- -- 77
2019-04-17 03:00:00 10.2 9 Sudeste 18 Sudeste 0 -- -- 76
2019-04-17 02:00:00 11.2 10 Este 18 Este 0 -- -- 77
2019-04-17 01:00:00 12.6 9 Sur 22 Sudeste 0 -- -- 69
2019-04-17 00:00:00 13 8 Este 18 Este 0 -- -- 67
2019-04-16 23:00:00 14.5 7 Sudeste 17 Sudeste 0 -- -- 54
2019-04-16 22:00:00 14.8 6 Sudeste 14 Sudeste 0 -- -- 60
2019-04-16 21:00:00 16.1 5 Sudeste 19 Este 0 -- -- 58
2019-04-16 20:00:00 17.4 7 Sudeste 19 Este 0 -- -- 54
2019-04-16 19:00:00 18.1 10 Este 24 Este 0 -- -- 51
2019-04-16 18:00:00 18.8 13 Este 24 Este 0 -- -- 49
2019-04-16 17:00:00 18.7 14 Este 25 Este 0 -- -- 50
2019-04-16 16:00:00 18.2 11 Este 24 Este 0 -- -- 54
2019-04-16 15:00:00 17.1 9 Nordeste 21 Este 0 -- -- 58
2019-04-16 14:00:00 16.5 5 Nordeste 18 Este 0 -- -- 60
2019-04-16 13:00:00 15.6 5 Nordeste 15 Sudeste 0 -- -- 64
2019-04-16 12:00:00 14.4 5 Sudeste 14 Este 0 -- -- 63
2019-04-16 11:00:00 12.7 5 Nordeste 16 Norte 0 -- -- 70
2019-04-16 10:00:00 12.1 6 Norte 18 Noroeste 0 -- -- 76
2019-04-16 09:00:00 10.9 3 Norte 9 Norte 0 -- -- 91
2019-04-16 08:00:00 8.6 6 Oeste 12 Oeste 0 -- -- 93
2019-04-16 07:00:00 9.4 5 Noroeste 9 Oeste 0 -- -- 93
2019-04-16 06:00:00 9.6 8 Oeste 11 Sudoeste 0 -- -- 93
2019-04-16 05:00:00 10 6 Oeste 15 Sudoeste 0 -- -- 94
2019-04-16 04:00:00 9.9 6 Sudoeste 13 Sudoeste 0.8 -- -- 94
2019-04-16 03:00:00 10.2 4 Noroeste 13 Norte 0.6 -- -- 93
2019-04-16 02:00:00 10.4 3 Noroeste 25 Norte 0 -- -- 93
2019-04-16 01:00:00 10.2 13 Norte 33 Norte 2.2 -- -- 93
2019-04-16 00:00:00 11.5 19 Norte 36 Norte 0.6 -- -- 90
2019-04-15 23:00:00 13.5 3 Nordeste 15 Este 3.6 -- -- 82
2019-04-15 22:00:00 14.8 2 Oeste 10 Nordeste 0 -- -- 75
2019-04-15 21:00:00 15.6 6 Nordeste 23 Sudeste 0 -- -- 70
2019-04-15 20:00:00 16.3 9 Este 37 Sudeste 0 -- -- 69
2019-04-15 19:00:00 17.9 23 Sudeste 41 Sudeste 0.4 -- -- 65
2019-04-15 18:00:00 20 22 Sudeste 45 Sudeste 0 -- -- 52
2019-04-15 17:00:00 21.6 23 Sudeste 46 Sudeste 0 -- -- 48
2019-04-15 16:00:00 22.5 22 Sudeste 51 Este 0 -- -- 47
2019-04-15 15:00:00 21.4 20 Sudeste 38 Sudeste 0 -- -- 48
2019-04-15 14:00:00 19.4 23 Sudeste 35 Sudeste 0 -- -- 57
2019-04-15 13:00:00 19.4 9 Sur 28 Este 0 -- -- 59
2019-04-15 12:00:00 17.8 13 Este 26 Sudeste 0 -- -- 63
2019-04-15 11:00:00 16.5 3 Este 12 Nordeste 0 -- -- 68
2019-04-15 10:00:00 14.4 3 Nordeste 10 Sudeste 0 -- -- 75
2019-04-15 09:00:00 12.1 3 Norte 9 Oeste 0 -- -- 84
2019-04-15 08:00:00 9.5 3 Oeste 13 Noroeste 0 -- -- 87
2019-04-15 07:00:00 10.5 4 Oeste 10 Noroeste 0 -- -- 83
2019-04-15 06:00:00 11.6 3 Sur 12 Oeste 0 -- -- 80
2019-04-15 05:00:00 11.6 5 Oeste 9 Oeste 0 -- -- 81
2019-04-15 04:00:00 11.4 5 Oeste 10 Oeste 0 -- -- 80
2019-04-15 03:00:00 12 6 Oeste 13 Oeste 0 -- -- 79
2019-04-15 02:00:00 12.2 4 Sudoeste 14 Oeste 0 -- -- 78
2019-04-15 01:00:00 12.8 5 Oeste 15 Oeste 0 -- -- 77
2019-04-15 00:00:00 13.6 6 Oeste 15 Oeste 0 -- -- 75
2019-04-14 23:00:00 14 9 Oeste 13 Oeste 0 -- -- 73
2019-04-14 22:00:00 15.6 6 Oeste 12 Oeste 0 -- -- 67
2019-04-14 21:00:00 17.8 4 Oeste 18 Norte 0 -- -- 60
2019-04-14 20:00:00 19.4 12 Nordeste 27 Norte 0 -- -- 54
2019-04-14 19:00:00 21 18 Norte 34 Norte 0 -- -- 48
2019-04-14 18:00:00 23.4 17 Norte 32 Norte 0 -- -- 39
2019-04-14 17:00:00 24 18 Noroeste 32 Norte 0 -- -- 36
2019-04-14 16:00:00 22.8 17 Norte 28 Norte 0 -- -- 37
2019-04-14 15:00:00 22.3 10 Norte 26 Norte 0 -- -- 38
2019-04-14 14:00:00 20.8 12 Norte 24 Norte 0 -- -- 39
2019-04-14 13:00:00 19.7 12 Norte 26 Nordeste 0 -- -- 40
2019-04-14 12:00:00 18.4 12 Norte 26 Norte 0 -- -- 44
2019-04-14 11:00:00 17.2 6 Este 13 Nordeste 0 -- -- 46
2019-04-14 10:00:00 14 3 Sudeste 18 Nordeste 0 -- -- 49
2019-04-14 09:00:00 12.3 4 Este 14 Oeste 0 -- -- 56
2019-04-14 08:00:00 10.4 4 Sur 6 Sur 0 -- -- 56
2019-04-14 07:00:00 10.1 3 Noroeste 5 Norte 0 -- -- 54
2019-04-14 06:00:00 9.2 0 Calma 8 Oeste 0 -- -- 54
2019-04-14 05:00:00 9.1 7 Oeste 10 Oeste 0 -- -- 51
2019-04-14 04:00:00 9.4 4 Oeste 14 Oeste 0 -- -- 47
2019-04-14 03:00:00 10.6 9 Oeste 14 Oeste 0 -- -- 40
2019-04-14 02:00:00 10 0 Calma 11 Sudoeste 0 -- -- 33
2019-04-14 01:00:00 10.7 9 Oeste 18 Oeste 0 -- -- 30
2019-04-14 00:00:00 12.1 12 Oeste 18 Oeste 0 -- -- 26
2019-04-13 23:00:00 12.5 9 Oeste 19 Oeste 0 -- -- 24
2019-04-13 22:00:00 13.1 14 Oeste 22 Oeste 0 -- -- 22
2019-04-13 21:00:00 14.3 10 Oeste 13 Oeste 0 -- -- 27
2019-04-13 20:00:00 20.7 4 Noroeste 15 Norte 0 -- -- 15
2019-04-13 19:00:00 21.1 7 Norte 26 Nordeste 0 -- -- 10
2019-04-13 18:00:00 20.9 10 Nordeste 19 Nordeste 0 -- -- 9
2019-04-13 17:00:00 21.2 10 Norte 24 Norte 0 -- -- 9
2019-04-13 16:00:00 20.8 11 Norte 22 Norte 0 -- -- 9
2019-04-13 15:00:00 20.5 11 Norte 25 Norte 0 -- -- 10
2019-04-13 14:00:00 18.5 12 Norte 25 Norte 0 -- -- 19
2019-04-13 13:00:00 16.9 8 Nordeste 26 Norte 0 -- -- 23
2019-04-13 12:00:00 16.1 14 Norte 28 Norte 0 -- -- 22
2019-04-13 11:00:00 13.4 5 Nordeste 12 Nordeste 0 -- -- 33
2019-04-13 10:00:00 10.8 8 Nordeste 15 Oeste 0 -- -- 36
2019-04-13 09:00:00 8.3 6 Oeste 18 Oeste 0 -- -- 33
2019-04-13 08:00:00 2.9 2 Sudoeste 8 Sudoeste 0 -- -- 43
2019-04-13 07:00:00 3.5 8 Oeste 15 Noroeste 0 -- -- 42
2019-04-13 06:00:00 2.2 4 Sudoeste 9 Sudoeste 0 -- -- 52
2019-04-13 05:00:00 2.2 0 Calma 10 Oeste 0 -- -- 57
2019-04-13 04:00:00 2.8 3 Sudoeste 12 Oeste 0 -- -- 62
2019-04-13 03:00:00 3.4 0 Calma 15 Oeste 0 -- -- 65
2019-04-13 02:00:00 3.7 6 Oeste 15 Oeste 0 -- -- 69
2019-04-13 01:00:00 4.3 12 Oeste 15 Oeste 0 -- -- 73
2019-04-13 00:00:00 6.5 10 Oeste 15 Oeste 0 -- -- 66
2019-04-12 23:00:00 8.9 7 Oeste 23 Noroeste 0 -- -- 57
2019-04-12 22:00:00 10.6 12 Noroeste 23 Noroeste 0 -- -- 54
2019-04-12 21:00:00 11.9 7 Noroeste 31 Norte 0 -- -- 50
2019-04-12 20:00:00 14.4 17 Norte 36 Norte 0 -- -- 43
2019-04-12 19:00:00 15.6 19 Norte 40 Norte 0 -- -- 39
2019-04-12 18:00:00 16.1 19 Norte 42 Norte 0 -- -- 37
2019-04-12 17:00:00 16.6 20 Norte 45 Noroeste 0 -- -- 37
2019-04-12 16:00:00 16.4 19 Norte 44 Norte 0 -- -- 39
2019-04-12 15:00:00 15 19 Norte 40 Norte 0 -- -- 43
2019-04-12 14:00:00 14.5 22 Noroeste 41 Noroeste 0 -- -- 48
2019-04-12 13:00:00 13.4 19 Noroeste 44 Norte 0 -- -- 49
2019-04-12 12:00:00 12.4 17 Norte 42 Noroeste 0 -- -- 53
2019-04-12 11:00:00 11 24 Noroeste 53 Noroeste 0 -- -- 56
2019-04-12 10:00:00 10.5 22 Norte 41 Noroeste 0 -- -- 60
2019-04-12 09:00:00 8.1 12 Noroeste 23 Noroeste 0 -- -- 71
2019-04-12 08:00:00 6.7 9 Oeste 22 Oeste 0 -- -- 75
2019-04-12 07:00:00 6.8 14 Noroeste 24 Noroeste 0 -- -- 75
2019-04-12 06:00:00 5.7 8 Oeste 18 Noroeste 0 -- -- 77
2019-04-12 05:00:00 7 10 Noroeste 17 Noroeste 0 -- -- 73
2019-04-12 04:00:00 7.3 9 Oeste 25 Noroeste 0 -- -- 72
2019-04-12 03:00:00 7.6 12 Noroeste 27 Noroeste 0 -- -- 72
2019-04-12 02:00:00 7.2 9 Noroeste 21 Noroeste 0 -- -- 72
2019-04-12 01:00:00 7.5 8 Oeste 19 Noroeste 0 -- -- 72
2019-04-12 00:00:00 7.9 10 Noroeste 28 Noroeste 0 -- -- 71
2019-04-11 23:00:00 8.4 15 Noroeste 32 Noroeste 0 -- -- 72
2019-04-11 22:00:00 8.7 12 Noroeste 26 Noroeste 0 -- -- 70
2019-04-11 21:00:00 9.6 15 Noroeste 39 Norte 0 -- -- 69
2019-04-11 20:00:00 10.5 19 Norte 40 Noroeste 0 -- -- 68
2019-04-11 19:00:00 11.7 22 Noroeste 40 Noroeste 0 -- -- 60
2019-04-11 18:00:00 12.3 21 Norte 41 Noroeste 0 -- -- 58
2019-04-11 17:00:00 12.4 21 Noroeste 44 Norte 0 -- -- 59
2019-04-11 16:00:00 13.8 25 Norte 57 Norte 0 -- -- 52
2019-04-11 15:00:00 13.2 24 Norte 47 Norte 0 -- -- 54
2019-04-11 14:00:00 12.9 19 Norte 45 Norte 0 -- -- 54
2019-04-11 13:00:00 12.3 24 Norte 50 Norte 0 -- -- 55
2019-04-11 12:00:00 12.7 23 Norte 47 Norte 0 -- -- 54
2019-04-11 11:00:00 11.5 19 Norte 43 Norte 0 -- -- 52
2019-04-11 10:00:00 10.3 20 Noroeste 37 Noroeste 0 -- -- 58
2019-04-11 09:00:00 8.7 13 Noroeste 24 Noroeste 0 -- -- 67
2019-04-11 08:00:00 7.5 15 Noroeste 26 Noroeste 0 -- -- 71
2019-04-11 07:00:00 7.5 12 Noroeste 28 Noroeste 0 -- -- 71
2019-04-11 06:00:00 8.1 16 Noroeste 30 Noroeste 0 -- -- 68
2019-04-11 05:00:00 7.5 11 Noroeste 22 Noroeste 0 -- -- 72
2019-04-11 04:00:00 7.7 11 Noroeste 21 Noroeste 0 -- -- 71
2019-04-11 03:00:00 7.9 13 Noroeste 27 Noroeste 0 -- -- 73
2019-04-11 02:00:00 7.4 10 Noroeste 18 Oeste 0 -- -- 76
2019-04-11 01:00:00 7.6 10 Oeste 15 Noroeste 0 -- -- 75
2019-04-11 00:00:00 8 8 Noroeste 21 Noroeste 0 -- -- 73
2019-04-10 23:00:00 8.6 13 Noroeste 26 Noroeste 0 -- -- 69
2019-04-10 22:00:00 9.2 17 Noroeste 37 Norte 0 -- -- 66
2019-04-10 21:00:00 10.6 20 Noroeste 41 Noroeste 0 -- -- 62
2019-04-10 20:00:00 12.3 22 Noroeste 43 Norte 0 -- -- 54
2019-04-10 19:00:00 13.9 22 Norte 43 Noroeste 0 -- -- 47
2019-04-10 18:00:00 14.5 22 Norte 42 Norte 0 -- -- 46
2019-04-10 17:00:00 14 20 Norte 43 Norte 0 -- -- 53
2019-04-10 16:00:00 13.6 20 Norte 44 Norte 0 -- -- 55
2019-04-10 15:00:00 13.6 21 Norte 45 Noroeste 0 -- -- 55
2019-04-10 14:00:00 12.5 23 Norte 39 Norte 0 -- -- 57
2019-04-10 13:00:00 12 23 Norte 40 Noroeste 0 -- -- 61
2019-04-10 12:00:00 10.9 14 Norte 34 Norte 0 -- -- 64
2019-04-10 11:00:00 10.2 16 Norte 31 Norte 0 -- -- 65
2019-04-10 10:00:00 9.6 15 Noroeste 24 Noroeste 0 -- -- 66
2019-04-10 09:00:00 5.3 0 Calma 8 Sur 0 -- -- 87
2019-04-10 08:00:00 4.3 2 Sur 7 Sudoeste 0 -- -- 88
2019-04-10 07:00:00 5 5 Este 15 Oeste 0 -- -- 84
2019-04-10 06:00:00 6.2 10 Oeste 18 Noroeste 0 -- -- 78
2019-04-10 05:00:00 6 10 Oeste 19 Oeste 0 -- -- 79
2019-04-10 04:00:00 5.9 10 Oeste 18 Noroeste 0 -- -- 81
2019-04-10 03:00:00 6.2 8 Oeste 20 Noroeste 0 -- -- 82
2019-04-10 02:00:00 7.2 13 Noroeste 20 Noroeste 0 -- -- 80
2019-04-10 01:00:00 7.8 10 Noroeste 23 Noroeste 0 -- -- 79
2019-04-10 00:00:00 7.5 4 Noroeste 15 Noroeste 0 -- -- 84
2019-04-09 23:00:00 8.2 7 Noroeste 14 Noroeste 0.2 -- -- 88
2019-04-09 22:00:00 8.3 11 Noroeste 31 Noroeste 1.6 -- -- 84
2019-04-09 21:00:00 9.2 6 Oeste 19 Norte 0.2 -- -- 82
2019-04-09 20:00:00 9.4 13 Norte 38 Oeste 0 -- -- 79
2019-04-09 19:00:00 13.2 19 Oeste 46 Oeste 0 -- -- 54
2019-04-09 18:00:00 13.6 18 Oeste 45 Oeste 0 -- -- 53
2019-04-09 17:00:00 15.7 19 Oeste 44 Oeste 0 -- -- 45
2019-04-09 16:00:00 16.5 19 Oeste 41 Oeste 0 -- -- 43
2019-04-09 15:00:00 16.1 17 Oeste 42 Oeste 0 -- -- 42
2019-04-09 14:00:00 16 22 Oeste 40 Oeste 0 -- -- 42
2019-04-09 13:00:00 14.9 19 Oeste 41 Oeste 0 -- -- 45
2019-04-09 12:00:00 14.3 24 Oeste 46 Oeste 0 -- -- 47
2019-04-09 11:00:00 13.1 21 Oeste 49 Oeste 0 -- -- 51
2019-04-09 10:00:00 11.8 19 Oeste 44 Oeste 0 -- -- 58
2019-04-09 09:00:00 10.1 17 Oeste 42 Oeste 0 -- -- 64
2019-04-09 08:00:00 8.5 16 Oeste 36 Sudoeste 0 -- -- 68
2019-04-09 07:00:00 8.1 11 Oeste 30 Oeste 0 -- -- 71
2019-04-09 06:00:00 8.7 17 Oeste 32 Oeste 0 -- -- 64
2019-04-09 05:00:00 9 10 Oeste 35 Oeste 0 -- -- 67
2019-04-09 04:00:00 9.5 16 Oeste 36 Oeste 0 -- -- 67
2019-04-09 03:00:00 9.2 13 Oeste 29 Oeste 0 -- -- 69
2019-04-09 02:00:00 8.3 8 Oeste 18 Sudoeste 0 -- -- 79
2019-04-09 01:00:00 8.9 8 Oeste 14 Oeste 0 -- -- 82
2019-04-09 00:00:00 9.2 3 Oeste 10 Oeste 0 -- -- 83
2019-04-08 23:00:00 9.1 3 Sudoeste 8 Oeste 0 -- -- 84
2019-04-08 22:00:00 9.1 6 Oeste 12 Oeste 0 -- -- 83
2019-04-08 21:00:00 10.7 6 Noroeste 15 Norte 0 -- -- 76
2019-04-08 20:00:00 12.9 6 Norte 21 Nordeste 0 -- -- 68
2019-04-08 19:00:00 13.7 13 Norte 30 Norte 0 -- -- 67
2019-04-08 18:00:00 14.6 12 Norte 32 Norte 0.6 -- -- 65
2019-04-08 17:00:00 14.8 5 Este 21 Norte 0.4 -- -- 64
2019-04-08 16:00:00 14.5 16 Norte 27 Norte 0 -- -- 64
2019-04-08 15:00:00 15.3 11 Nordeste 27 Nordeste 0 -- -- 63
2019-04-08 14:00:00 15.2 8 Nordeste 35 Sudoeste 0 -- -- 64
2019-04-08 13:00:00 17.1 15 Oeste 35 Oeste 0 -- -- 55
2019-04-08 12:00:00 13 6 Este 13 Este 0 -- -- 72
2019-04-08 11:00:00 10.6 3 Este 13 Este 0 -- -- 82
2019-04-08 10:00:00 9.1 3 Sur 8 Sudeste 0 -- -- 87
2019-04-08 09:00:00 8.3 3 Sudeste 7 Sudeste 0 -- -- 90
2019-04-08 08:00:00 7.7 3 Sudoeste 11 Sudoeste 0 -- -- 89
2019-04-08 07:00:00 7.2 4 Sudoeste 10 Sudoeste 0 -- -- 92
2019-04-08 06:00:00 7.2 0 Calma 13 Nordeste 0 -- -- 92
2019-04-08 05:00:00 7.5 6 Este 14 Este 0.2 -- -- 88
2019-04-08 04:00:00 7.4 4 Sudeste 12 Norte 0.4 -- -- 89
2019-04-08 03:00:00 7.7 6 Oeste 15 Sudoeste 0.6 -- -- 86
2019-04-08 02:00:00 8 5 Oeste 34 Oeste 0.8 -- -- 84
2019-04-08 01:00:00 9.9 15 Oeste 37 Sudoeste 0 -- -- 67
2019-04-08 00:00:00 10.8 17 Oeste 42 Oeste 0 -- -- 55
2019-04-07 23:00:00 10 13 Oeste 19 Oeste 0 -- -- 53
2019-04-07 22:00:00 10.7 6 Oeste 11 Oeste 0 -- -- 53
2019-04-07 21:00:00 11.7 6 Oeste 24 Oeste 0 -- -- 48
2019-04-07 20:00:00 12.6 10 Oeste 28 Oeste 0 -- -- 43
2019-04-07 19:00:00 13.6 13 Oeste 30 Sudoeste 0 -- -- 42
2019-04-07 18:00:00 13.8 7 Noroeste 28 Oeste 0 -- -- 44
2019-04-07 17:00:00 13.6 8 Oeste 19 Norte 0 -- -- 46
2019-04-07 16:00:00 13.4 8 Norte 20 Norte 0 -- -- 43
2019-04-07 15:00:00 13.2 8 Norte 28 Norte 0 -- -- 47
2019-04-07 14:00:00 12.5 13 Norte 31 Norte 0 -- -- 52
2019-04-07 13:00:00 11.3 10 Nordeste 30 Norte 0 -- -- 54
2019-04-07 12:00:00 11.4 13 Norte 27 Norte 0 -- -- 55
2019-04-07 11:00:00 9.7 9 Norte 27 Norte 0 -- -- 60
2019-04-07 10:00:00 8.2 8 Norte 24 Oeste 0 -- -- 69
2019-04-07 09:00:00 6.7 13 Oeste 21 Oeste 0.2 -- -- 69
2019-04-07 08:00:00 4.6 10 Oeste 19 Oeste 0 -- -- 76
2019-04-07 07:00:00 4.7 4 Noroeste 8 Noroeste 0 -- -- 81
2019-04-07 06:00:00 5.6 2 Norte 9 Norte 0 -- -- 87
2019-04-07 05:00:00 5.7 7 Noroeste 13 Oeste 0.2 -- -- 84
2019-04-07 04:00:00 6 5 Noroeste 20 Oeste 0 -- -- 84
2019-04-07 03:00:00 5.9 5 Norte 11 Oeste 0 -- -- 85
2019-04-07 02:00:00 6.4 8 Oeste 32 Oeste 0.6 -- -- 80
2019-04-07 01:00:00 6.9 14 Oeste 29 Oeste 0 -- -- 76
2019-04-07 00:00:00 6.6 3 Sudoeste 38 Oeste 0.2 -- -- 79
2019-04-06 23:00:00 7.7 19 Oeste 35 Oeste 0 -- -- 75
2019-04-06 22:00:00 7.7 13 Oeste 31 Sudoeste 0 -- -- 67
2019-04-06 21:00:00 8.6 15 Oeste 40 Sudoeste 0 -- -- 64
2019-04-06 20:00:00 9.2 12 Oeste 43 Sudoeste 0 -- -- 62
2019-04-06 19:00:00 9.6 13 Sudoeste 31 Sudoeste 0 -- -- 59
2019-04-06 18:00:00 10 11 Oeste 34 Oeste 0 -- -- 59
2019-04-06 17:00:00 11.1 19 Sudoeste 44 Oeste 0 -- -- 55
2019-04-06 16:00:00 12.5 17 Oeste 42 Oeste 0 -- -- 46
2019-04-06 15:00:00 9.7 26 Oeste 47 Sudoeste 0 -- -- 59
2019-04-06 14:00:00 10.3 17 Sudoeste 42 Oeste 0 -- -- 55
2019-04-06 13:00:00 9.9 16 Oeste 48 Oeste 0 -- -- 55
2019-04-06 12:00:00 10.5 21 Oeste 50 Oeste 0 -- -- 54
2019-04-06 11:00:00 9.9 22 Oeste 46 Oeste 0 -- -- 54
2019-04-06 10:00:00 8.8 19 Oeste 53 Oeste 0 -- -- 58
2019-04-06 09:00:00 7.1 20 Oeste 47 Oeste 0 -- -- 65
2019-04-06 08:00:00 6 16 Oeste 36 Oeste 0 -- -- 71
2019-04-06 07:00:00 6 17 Oeste 39 Oeste 0 -- -- 70
2019-04-06 06:00:00 6.1 19 Oeste 39 Oeste 0 -- -- 70
2019-04-06 05:00:00 6.1 21 Oeste 41 Oeste 0 -- -- 71
2019-04-06 04:00:00 6.3 23 Oeste 40 Oeste 0 -- -- 71
2019-04-06 03:00:00 6.2 17 Oeste 40 Oeste 0 -- -- 72
2019-04-06 02:00:00 6.2 13 Oeste 33 Oeste 0 -- -- 72
2019-04-06 01:00:00 4.9 3 Sudoeste 12 Oeste 0 -- -- 91
2019-04-06 00:00:00 5.2 2 Sudoeste 5 Sudoeste 0 -- -- 91
2019-04-05 23:00:00 5.4 0 Calma 13 Norte 0 -- -- 91
2019-04-05 22:00:00 5.8 7 Norte 17 Norte 0 -- -- 88
2019-04-05 21:00:00 7 6 Oeste 35 Oeste 0 -- -- 75
2019-04-05 20:00:00 8.4 7 Oeste 21 Noroeste 0.4 -- -- 74
2019-04-05 19:00:00 10.1 13 Sudoeste 36 Sudeste 0 -- -- 64
2019-04-05 18:00:00 11.1 11 Sur 40 Sudeste 0 -- -- 61
2019-04-05 17:00:00 10.8 21 Sudeste 36 Sudeste 0 -- -- 58
2019-04-05 16:00:00 11 17 Sudeste 32 Sudeste 0 -- -- 55
2019-04-05 15:00:00 11.1 5 Sudeste 23 Sur 0 -- -- 54
2019-04-05 14:00:00 11.5 8 Norte 14 Norte 0 -- -- 57
2019-04-05 13:00:00 10.8 4 Este 12 Este 0 -- -- 58
2019-04-05 12:00:00 10.3 0 Calma 14 Norte 0 -- -- 65
2019-04-05 11:00:00 8.8 5 Noroeste 14 Norte 0 -- -- 72
2019-04-05 10:00:00 7.8 7 Noroeste 15 Norte 0 -- -- 73
2019-04-05 09:00:00 7.3 6 Norte 16 Norte 0 -- -- 71
2019-04-05 08:00:00 6.5 6 Este 22 Este 0 -- -- 72
2019-04-05 07:00:00 6.5 11 Norte 21 Norte 0 -- -- 68
2019-04-05 06:00:00 8.5 4 Nordeste 22 Sur 0 -- -- 55
2019-04-05 05:00:00 8.5 12 Sudeste 34 Sudeste 0 -- -- 51
2019-04-05 04:00:00 8.3 12 Sudeste 28 Sudeste 0 -- -- 53
2019-04-05 03:00:00 8.6 15 Sudeste 32 Sudeste 0 -- -- 50
2019-04-05 02:00:00 9.1 21 Sudeste 39 Sudeste 0 -- -- 47
2019-04-05 01:00:00 9.5 24 Sudeste 39 Sur 0 -- -- 48
2019-04-05 00:00:00 9.9 13 Sudeste 26 Sudeste 0 -- -- 49
2019-04-04 23:00:00 10.3 8 Sudeste 16 Sudeste 0 -- -- 45
2019-04-04 22:00:00 9.8 3 Noroeste 9 Oeste 0 -- -- 62
2019-04-04 21:00:00 10.8 3 Noroeste 10 Oeste 0 -- -- 53
2019-04-04 20:00:00 11.8 4 Nordeste 24 Este 0 -- -- 46
2019-04-04 19:00:00 13.3 8 Este 22 Oeste 0 -- -- 40
2019-04-04 18:00:00 14.7 10 Oeste 31 Oeste 0 -- -- 29
2019-04-04 17:00:00 14.3 14 Oeste 31 Noroeste 0 -- -- 29
2019-04-04 16:00:00 13.2 12 Oeste 23 Noroeste 0 -- -- 32
2019-04-04 15:00:00 12.7 9 Oeste 27 Oeste 0 -- -- 35
2019-04-04 14:00:00 12.1 13 Oeste 22 Sudoeste 0 -- -- 40
2019-04-04 13:00:00 10.2 6 Oeste 25 Noroeste 0 -- -- 45
2019-04-04 12:00:00 8.3 6 Este 13 Este 0 -- -- 53
2019-04-04 11:00:00 6.8 6 Este 17 Este 0 -- -- 64
2019-04-04 10:00:00 5.2 6 Este 13 Este 0 -- -- 71
2019-04-04 09:00:00 2.8 6 Oeste 22 Oeste 0 -- -- 71
2019-04-04 08:00:00 0.3 6 Oeste 15 Oeste 0 -- -- 80
2019-04-04 07:00:00 0.7 9 Oeste 16 Oeste 0 -- -- 79
2019-04-04 06:00:00 0 4 Sudoeste 10 Sur 0 -- -- 83
2019-04-04 05:00:00 0.5 5 Sudeste 15 Oeste 0 -- -- 79
2019-04-04 04:00:00 0.5 10 Oeste 15 Oeste 0 -- -- 80
2019-04-04 03:00:00 1.2 5 Oeste 13 Sudoeste 0 -- -- 78
2019-04-04 02:00:00 2.3 9 Sudoeste 25 Sudeste 0 -- -- 74
2019-04-04 01:00:00 1.7 7 Sur 10 Sur 0 -- -- 86
2019-04-04 00:00:00 2.6 6 Oeste 14 Oeste 0 -- -- 78
2019-04-03 23:00:00 3.7 5 Oeste 22 Noroeste 0 -- -- 75
2019-04-03 22:00:00 4 6 Noroeste 12 Noroeste 0.2 -- -- 83
2019-04-03 21:00:00 5.4 8 Noroeste 12 Oeste 0 -- -- 84
2019-04-03 20:00:00 5.6 5 Oeste 13 Oeste 0 -- -- 87
2019-04-03 19:00:00 4.8 7 Sudoeste 28 Noroeste 0.6 -- -- 90
2019-04-03 18:00:00 4.6 17 Noroeste 37 Noroeste 1.6 -- -- 88
2019-04-03 17:00:00 7.6 12 Norte 32 Noroeste 0.4 -- -- 79
2019-04-03 16:00:00 7.4 7 Oeste 19 Oeste 0.2 -- -- 82
2019-04-03 15:00:00 7.5 10 Norte 17 Norte 0.2 -- -- 85
2019-04-03 14:00:00 5.6 9 Norte 19 Norte 1.2 -- -- 91
2019-04-03 13:00:00 6.3 2 Nordeste 6 Norte 0.2 -- -- 91
2019-04-03 12:00:00 6 2 Este 24 Norte 0.4 -- -- 90
2019-04-03 11:00:00 6.7 12 Norte 29 Nordeste 0 -- -- 84
2019-04-03 10:00:00 7.4 8 Norte 14 Norte 0 -- -- 86
2019-04-03 09:00:00 7.4 2 Noroeste 13 Norte 0 -- -- 88
2019-04-03 08:00:00 7.6 4 Norte 19 Norte 0 -- -- 86
2019-04-03 07:00:00 7.7 9 Norte 16 Noroeste 0 -- -- 85
2019-04-03 06:00:00 8.1 10 Norte 21 Noroeste 0 -- -- 86
2019-04-03 05:00:00 8.7 8 Norte 15 Norte 0 -- -- 82
2019-04-03 04:00:00 8.8 8 Norte 13 Norte 0 -- -- 82
2019-04-03 03:00:00 8.4 5 Oeste 10 Oeste 0 -- -- 87
2019-04-03 02:00:00 8.5 5 Oeste 10 Noroeste 0 -- -- 83
2019-04-03 01:00:00 8.2 6 Oeste 12 Oeste 0 -- -- 80
2019-04-03 00:00:00 9.2 6 Oeste 14 Noroeste 0 -- -- 76
2019-04-02 23:00:00 10.1 8 Noroeste 27 Noroeste 0 -- -- 72
2019-04-02 22:00:00 12 12 Norte 32 Noroeste 0 -- -- 66
2019-04-02 21:00:00 12.3 10 Oeste 17 Oeste 0 -- -- 67
2019-04-02 20:00:00 13.6 8 Oeste 22 Sudoeste 0 -- -- 66
2019-04-02 19:00:00 14.2 12 Oeste 28 Sudoeste 0 -- -- 65
2019-04-02 18:00:00 15.7 9 Oeste 22 Oeste 0 -- -- 58
2019-04-02 17:00:00 16.1 12 Oeste 23 Oeste 0 -- -- 53
2019-04-02 16:00:00 16.4 9 Sudoeste 17 Oeste 0 -- -- 57
2019-04-02 15:00:00 14.9 8 Oeste 19 Norte 0 -- -- 59
2019-04-02 14:00:00 14.9 10 Norte 23 Norte 0 -- -- 61
2019-04-02 13:00:00 14.7 8 Norte 22 Norte 0 -- -- 62
2019-04-02 12:00:00 13.3 9 Norte 17 Norte 0 -- -- 71
2019-04-02 11:00:00 11.8 2 Oeste 8 Norte 0 -- -- 84
2019-04-02 10:00:00 8.3 4 Sur 8 Sur 0 -- -- 97
2019-04-02 09:00:00 6 3 Sudoeste 8 Sudoeste 0 -- -- 97
2019-04-02 08:00:00 5.3 3 Oeste 13 Oeste 0 -- -- 95
2019-04-02 07:00:00 5.8 4 Sudoeste 9 Noroeste 0 -- -- 95
2019-04-02 06:00:00 6 2 Sudoeste 9 Oeste 0 -- -- 95
2019-04-02 05:00:00 5.8 3 Sudoeste 8 Oeste 0 -- -- 94
2019-04-02 04:00:00 6.3 5 Oeste 15 Oeste 0 -- -- 93
2019-04-02 03:00:00 7.2 5 Oeste 14 Oeste 0 -- -- 93
2019-04-02 02:00:00 8 6 Oeste 10 Oeste 0 -- -- 92
2019-04-02 01:00:00 8.8 3 Oeste 15 Oeste 0 -- -- 90
2019-04-02 00:00:00 9 3 Sudoeste 8 Oeste 0 -- -- 92
2019-04-01 23:00:00 9.7 3 Sudoeste 8 Oeste 0 -- -- 92
2019-04-01 22:00:00 11 3 Noroeste 11 Sudoeste 0 -- -- 91
2019-04-01 21:00:00 11.5 4 Sudeste 19 Oeste 0.4 -- -- 90
2019-04-01 20:00:00 11.5 3 Sudoeste 18 Sudeste 1.2 -- -- 90
2019-04-01 19:00:00 11.7 8 Sudeste 23 Sudeste 2.6 -- -- 90
2019-04-01 18:00:00 13.2 6 Sur 13 Nordeste 0.4 -- -- 79
2019-04-01 17:00:00 14 7 Sudeste 13 Este 0 -- -- 71
2019-04-01 16:00:00 14.2 5 Nordeste 17 Este 0 -- -- 70
2019-04-01 15:00:00 13.6 4 Este 14 Este 0 -- -- 73
2019-04-01 14:00:00 12.3 8 Este 19 Este 0 -- -- 78
2019-04-01 13:00:00 10.7 5 Este 10 Este 0 -- -- 83
2019-04-01 12:00:00 10.2 7 Este 13 Nordeste 0 -- -- 87
2019-04-01 11:00:00 9.1 7 Nordeste 12 Este 0 -- -- 92
2019-04-01 10:00:00 8.4 4 Nordeste 7 Norte 0 -- -- 95
2019-04-01 09:00:00 8 3 Norte 6 Norte 0 -- -- 96
2019-04-01 08:00:00 7.6 0 Calma 5 Este 0 -- -- 96
2019-04-01 07:00:00 7.4 0 Calma 6 Nordeste 0 -- -- 97
2019-04-01 06:00:00 7.4 3 Este 8 Este 0 -- -- 97
2019-04-01 05:00:00 7.5 3 Nordeste 5 Este 0 -- -- 96
2019-04-01 04:00:00 7.6 3 Nordeste 6 Nordeste 0.2 -- -- 95
2019-04-01 03:00:00 7.8 3 Este 4 Nordeste 0.2 -- -- 94
2019-04-01 02:00:00 7.8 0 Calma 6 Noroeste 0.6 -- -- 93
2019-04-01 01:00:00 8 0 Calma 9 Oeste 0.8 -- -- 92
2019-04-01 00:00:00 7.8 9 Oeste 11 Oeste 1 -- -- 91
2019-03-31 23:00:00 8.1 5 Oeste 15 Sudoeste 1 -- -- 87
2019-03-31 22:00:00 8.5 9 Sudoeste 15 Sur 1.2 -- -- 83
2019-03-31 21:00:00 9.5 7 Sudoeste 17 Sur 0.8 -- -- 78
2019-03-31 20:00:00 10.8 8 Sur 16 Sur 0 -- -- 71
2019-03-31 19:00:00 12 5 Sudoeste 16 Sudeste 0 -- -- 59
2019-03-31 18:00:00 12.2 9 Sudeste 21 Sudeste 0 -- -- 55
2019-03-31 17:00:00 12.5 12 Sur 24 Sudeste 0 -- -- 49
2019-03-31 16:00:00 12.7 10 Sudeste 21 Sudeste 0 -- -- 49
2019-03-31 15:00:00 12 11 Este 22 Este 0 -- -- 54
2019-03-31 14:00:00 11.7 12 Este 25 Nordeste 0 -- -- 59
2019-03-31 13:00:00 11.7 15 Este 22 Este 0 -- -- 60
2019-03-31 12:00:00 10.3 9 Nordeste 18 Nordeste 0 -- -- 71
2019-03-31 11:00:00 8.4 6 Nordeste 10 Nordeste 0 -- -- 74
2019-03-31 10:00:00 8 5 Norte 9 Norte 0 -- -- 76
2019-03-31 09:00:00 4.8 0 Calma 8 Oeste 0 -- -- 75
2019-03-31 08:00:00 3.3 7 Oeste 10 Oeste 0 -- -- 79
2019-03-31 07:00:00 3 3 Sudoeste 9 Noroeste 0 -- -- 81
2019-03-31 06:00:00 3.8 3 Oeste 13 Noroeste 0 -- -- 80
2019-03-31 05:00:00 6.4 8 Sudoeste 17 Sur 0 -- -- 80
2019-03-31 03:00:00 5.4 5 Noroeste 8 Noroeste 0 -- -- 66
2019-03-31 01:00:00 6 3 Norte 13 Sur 0 -- -- 63
2019-03-31 00:00:00 8.3 3 Sudeste 8 Este 0 -- -- 53
2019-03-30 23:00:00 7.8 4 Sudoeste 10 Sur 0 -- -- 53
2019-03-30 22:00:00 8.2 5 Noroeste 9 Oeste 0 -- -- 51
2019-03-30 21:00:00 10.3 3 Noroeste 11 Sudeste 0 -- -- 45
2019-03-30 20:00:00 14 2 Sudeste 15 Este 0 -- -- 34
2019-03-30 19:00:00 16.1 9 Sudeste 23 Este 0 -- -- 31
2019-03-30 18:00:00 17 13 Sudeste 27 Sudeste 0 -- -- 29
2019-03-30 17:00:00 17.4 15 Sudeste 32 Sudeste 0 -- -- 29
2019-03-30 16:00:00 17.4 15 Sudeste 35 Este 0 -- -- 32
2019-03-30 15:00:00 17 18 Sudeste 37 Sudeste 0 -- -- 36
2019-03-30 14:00:00 16.8 17 Sudeste 34 Sudeste 0 -- -- 34
2019-03-30 13:00:00 16 12 Sudeste 25 Sudeste 0 -- -- 38
2019-03-30 12:00:00 14.4 6 Este 20 Este 0 -- -- 43
2019-03-30 11:00:00 12.5 5 Nordeste 17 Este 0 -- -- 55
2019-03-30 10:00:00 10.4 5 Este 13 Este 0 -- -- 62
2019-03-30 09:00:00 7.7 3 Sur 9 Sudoeste 0 -- -- 70
2019-03-30 08:00:00 3.8 3 Oeste 9 Oeste 0 -- -- 78
2019-03-30 07:00:00 2.7 4 Oeste 9 Oeste 0 -- -- 79
2019-03-30 06:00:00 3 5 Oeste 13 Sudoeste 0 -- -- 77
2019-03-30 05:00:00 5.8 10 Sudoeste 17 Sudoeste 0 -- -- 68
2019-03-30 04:00:00 6.5 8 Sur 18 Sur 0 -- -- 66
2019-03-30 03:00:00 7.4 9 Sur 17 Sudoeste 0 -- -- 62
2019-03-30 02:00:00 8.7 5 Sur 14 Sudeste 0 -- -- 59
2019-03-30 01:00:00 9.7 12 Sudeste 21 Este 0 -- -- 56
2019-03-30 00:00:00 10.2 2 Nordeste 15 Sudeste 0 -- -- 52
2019-03-29 23:00:00 11.5 4 Este 15 Sudeste 0 -- -- 51
2019-03-29 22:00:00 12.4 6 Sudeste 16 Sudeste 0 -- -- 48
2019-03-29 21:00:00 13.6 12 Sudeste 35 Sudeste 0 -- -- 44
2019-03-29 20:00:00 14.9 17 Sudeste 28 Este 0 -- -- 42
2019-03-29 19:00:00 16.6 12 Sudeste 35 Este 0 -- -- 34
2019-03-29 18:00:00 17.6 16 Sudeste 36 Sudeste 0 -- -- 31
2019-03-29 17:00:00 17.9 21 Sudeste 39 Este 0 -- -- 29
2019-03-29 16:00:00 18 19 Sudeste 38 Sudeste 0 -- -- 30
2019-03-29 15:00:00 17.9 23 Sudeste 44 Sudeste 0 -- -- 32
2019-03-29 14:00:00 17.6 18 Sudeste 37 Sudeste 0 -- -- 32
2019-03-29 13:00:00 16.8 9 Este 30 Sudeste 0 -- -- 34
2019-03-29 12:00:00 14.9 9 Sudeste 18 Sudeste 0 -- -- 41
2019-03-29 11:00:00 13.5 9 Este 19 Nordeste 0 -- -- 45
2019-03-29 10:00:00 11.5 8 Este 15 Este 0 -- -- 51
2019-03-29 09:00:00 8.4 3 Este 6 Este 0 -- -- 64
2019-03-29 08:00:00 4 0 Calma 6 Sudoeste 0 -- -- 77
2019-03-29 07:00:00 2.3 6 Oeste 10 Oeste 0 -- -- 79
2019-03-29 06:00:00 2.7 7 Oeste 12 Oeste 0 -- -- 78
2019-03-29 05:00:00 3.3 3 Oeste 13 Oeste 0 -- -- 76
2019-03-29 04:00:00 4.2 0 Calma 9 Oeste 0 -- -- 73
2019-03-29 03:00:00 4.7 6 Oeste 10 Oeste 0 -- -- 71
2019-03-29 02:00:00 5.4 4 Oeste 10 Oeste 0 -- -- 69
2019-03-29 01:00:00 5.8 3 Oeste 16 Oeste 0 -- -- 68
2019-03-29 00:00:00 6.2 4 Oeste 12 Oeste 0 -- -- 69
2019-03-28 23:00:00 7.6 6 Oeste 13 Oeste 0 -- -- 64
2019-03-28 22:00:00 9.9 6 Oeste 12 Oeste 0 -- -- 57
2019-03-28 21:00:00 11.7 8 Sudoeste 14 Norte 0 -- -- 52
2019-03-28 20:00:00 13.8 6 Noroeste 14 Norte 0 -- -- 45
2019-03-28 19:00:00 17.3 4 Norte 17 Norte 0 -- -- 36
2019-03-28 18:00:00 18 9 Norte 24 Noroeste 0 -- -- 34
2019-03-28 17:00:00 18.1 9 Norte 24 Norte 0 -- -- 32
2019-03-28 16:00:00 17.8 12 Norte 26 Norte 0 -- -- 34
2019-03-28 15:00:00 17.2 12 Norte 39 Noroeste 0 -- -- 35
2019-03-28 14:00:00 16.3 12 Norte 28 Norte 0 -- -- 38
2019-03-28 13:00:00 15 14 Norte 28 Noroeste 0 -- -- 40
2019-03-28 12:00:00 14.3 12 Norte 26 Norte 0 -- -- 43
2019-03-28 11:00:00 13.1 11 Norte 28 Norte 0 -- -- 46
2019-03-28 10:00:00 11.9 16 Norte 28 Norte 0 -- -- 50
2019-03-28 09:00:00 10.3 8 Noroeste 15 Oeste 0 -- -- 54
2019-03-28 08:00:00 5.7 8 Oeste 16 Oeste 0 -- -- 65
2019-03-28 07:00:00 3.8 12 Oeste 15 Oeste 0 -- -- 69
2019-03-28 06:00:00 4.1 10 Oeste 14 Oeste 0 -- -- 68
2019-03-28 05:00:00 4.2 8 Oeste 14 Oeste 0 -- -- 68
2019-03-28 04:00:00 4.7 8 Oeste 12 Oeste 0 -- -- 65
2019-03-28 03:00:00 5.4 7 Oeste 14 Oeste 0 -- -- 62
2019-03-28 02:00:00 5.7 8 Oeste 14 Oeste 0 -- -- 60
2019-03-28 01:00:00 6.7 9 Oeste 16 Noroeste 0 -- -- 55
2019-03-28 00:00:00 8.6 11 Oeste 27 Norte 0 -- -- 50
2019-03-27 23:00:00 9 12 Noroeste 26 Noroeste 0 -- -- 45
2019-03-27 22:00:00 9.9 12 Noroeste 32 Norte 0 -- -- 37
2019-03-27 21:00:00 10.9 17 Noroeste 36 Noroeste 0 -- -- 32
2019-03-27 20:00:00 12 15 Noroeste 33 Norte 0 -- -- 35
2019-03-27 19:00:00 15 16 Norte 39 Norte 0 -- -- 28
2019-03-27 18:00:00 17 23 Norte 46 Norte 0 -- -- 23
2019-03-27 17:00:00 18.4 19 Norte 37 Norte 0 -- -- 19
2019-03-27 16:00:00 18.8 20 Norte 37 Noroeste 0 -- -- 18
2019-03-27 15:00:00 18.7 17 Norte 38 Noroeste 0 -- -- 20
2019-03-27 14:00:00 17.9 17 Norte 33 Norte 0 -- -- 21
2019-03-27 13:00:00 16.4 15 Norte 33 Norte 0 -- -- 24
2019-03-27 12:00:00 14.9 19 Norte 35 Norte 0 -- -- 25
2019-03-27 11:00:00 13.3 16 Norte 35 Norte 0 -- -- 28
2019-03-27 10:00:00 12.7 14 Norte 28 Norte 0 -- -- 28
2019-03-27 09:00:00 10.2 11 Oeste 19 Oeste 0 -- -- 33
2019-03-27 08:00:00 5.4 8 Oeste 19 Sudoeste 0 -- -- 48
2019-03-27 07:00:00 3.8 8 Oeste 18 Oeste 0 -- -- 51
2019-03-27 06:00:00 3.3 9 Oeste 16 Oeste 0 -- -- 55
2019-03-27 05:00:00 3.4 11 Oeste 17 Oeste 0 -- -- 56
2019-03-27 04:00:00 4.5 9 Oeste 18 Oeste 0 -- -- 53
2019-03-27 03:00:00 4.8 11 Oeste 17 Oeste 0 -- -- 53
2019-03-27 02:00:00 5.5 11 Oeste 18 Oeste 0 -- -- 51
2019-03-27 01:00:00 7.1 11 Oeste 20 Oeste 0 -- -- 46
2019-03-27 00:00:00 7 11 Oeste 16 Oeste 0 -- -- 45
2019-03-26 23:00:00 8.6 13 Oeste 27 Noroeste 0 -- -- 40
2019-03-26 22:00:00 9.2 15 Noroeste 27 Noroeste 0 -- -- 40
2019-03-26 21:00:00 9.9 18 Noroeste 32 Noroeste 0 -- -- 40
2019-03-26 20:00:00 10.5 15 Noroeste 39 Noroeste 0 -- -- 38
2019-03-26 19:00:00 12.6 20 Noroeste 40 Noroeste 0 -- -- 35
2019-03-26 18:00:00 15.4 21 Norte 42 Noroeste 0 -- -- 25
2019-03-26 17:00:00 16.9 24 Noroeste 43 Noroeste 0 -- -- 20
2019-03-26 16:00:00 18.4 21 Norte 40 Noroeste 0 -- -- 17
2019-03-26 15:00:00 18.3 21 Norte 37 Norte 0 -- -- 17
2019-03-26 14:00:00 17.5 18 Norte 34 Noroeste 0 -- -- 19
2019-03-26 13:00:00 16.1 15 Noroeste 32 Noroeste 0 -- -- 23
2019-03-26 12:00:00 14.2 14 Norte 34 Norte 0 -- -- 28
2019-03-26 11:00:00 12.7 14 Norte 35 Nordeste 0 -- -- 32
2019-03-26 10:00:00 10.6 15 Norte 35 Noroeste 0 -- -- 38
2019-03-26 09:00:00 8.9 16 Norte 30 Noroeste 0 -- -- 46
2019-03-26 08:00:00 6.1 9 Oeste 18 Oeste 0 -- -- 62
2019-03-26 07:00:00 5.6 9 Oeste 22 Oeste 0 -- -- 65
2019-03-26 06:00:00 6.4 14 Noroeste 32 Noroeste 0 -- -- 64
2019-03-26 05:00:00 6.8 16 Noroeste 28 Oeste 0 -- -- 64
2019-03-26 04:00:00 7.2 17 Noroeste 29 Noroeste 0 -- -- 64
2019-03-26 03:00:00 7.5 16 Noroeste 31 Noroeste 0 -- -- 65
2019-03-26 02:00:00 7.8 16 Noroeste 39 Noroeste 0 -- -- 64
2019-03-26 01:00:00 8 23 Noroeste 42 Noroeste 0 -- -- 64
2019-03-26 00:00:00 7.8 20 Noroeste 43 Noroeste 0 -- -- 63
2019-03-25 23:00:00 7.8 21 Noroeste 44 Norte 0 -- -- 61
2019-03-25 22:00:00 8.4 22 Noroeste 43 Norte 0 -- -- 58
2019-03-25 21:00:00 8.7 19 Noroeste 40 Noroeste 0 -- -- 58
2019-03-25 20:00:00 9.6 20 Noroeste 38 Noroeste 0 -- -- 56
2019-03-25 19:00:00 11.4 19 Norte 41 Norte 0 -- -- 48
2019-03-25 18:00:00 13.2 27 Norte 48 Norte 0 -- -- 43
2019-03-25 17:00:00 14.8 26 Noroeste 49 Noroeste 0 -- -- 38
2019-03-25 16:00:00 15.3 23 Norte 52 Norte 0 -- -- 37
2019-03-25 15:00:00 15.1 26 Norte 57 Norte 0 -- -- 37
2019-03-25 14:00:00 14.9 26 Norte 45 Norte 0 -- -- 40
2019-03-25 13:00:00 14.5 25 Norte 44 Norte 0 -- -- 43
2019-03-25 12:00:00 14 24 Norte 44 Norte 0 -- -- 48
2019-03-25 11:00:00 12.6 25 Norte 46 Noroeste 0 -- -- 55
2019-03-25 10:00:00 11.9 22 Norte 47 Norte 0 -- -- 57
2019-03-25 09:00:00 10.6 14 Noroeste 36 Noroeste 0 -- -- 62
2019-03-25 08:00:00 8.9 5 Noroeste 13 Norte 0 -- -- 65
2019-03-25 07:00:00 9.1 6 Noroeste 21 Oeste 0 -- -- 60
2019-03-25 06:00:00 9.8 12 Noroeste 19 Noroeste 0 -- -- 53
2019-03-25 05:00:00 9.9 11 Oeste 21 Oeste 0 -- -- 52
2019-03-25 04:00:00 10.3 13 Oeste 23 Oeste 0 -- -- 51
2019-03-25 03:00:00 10.5 15 Oeste 22 Oeste 0 -- -- 52
2019-03-25 02:00:00 10.9 8 Oeste 22 Sudoeste 0 -- -- 50
2019-03-25 01:00:00 11.4 11 Oeste 22 Oeste 0 -- -- 49
2019-03-25 00:00:00 12.4 12 Oeste 22 Noroeste 0 -- -- 49
2019-03-24 23:00:00 13 14 Noroeste 27 Noroeste 0 -- -- 48
2019-03-24 22:00:00 14 13 Noroeste 26 Norte 0 -- -- 48
2019-03-24 21:00:00 14.9 12 Noroeste 21 Noroeste 0 -- -- 40
2019-03-24 20:00:00 16.4 11 Noroeste 28 Norte 0 -- -- 38
2019-03-24 19:00:00 19.2 13 Norte 27 Norte 0 -- -- 29
2019-03-24 18:00:00 20.9 14 Norte 29 Norte 0 -- -- 25
2019-03-24 17:00:00 21.8 13 Norte 25 Nordeste 0 -- -- 24
2019-03-24 16:00:00 22.3 12 Norte 24 Norte 0 -- -- 25
2019-03-24 15:00:00 22.3 12 Norte 24 Norte 0 -- -- 28
2019-03-24 14:00:00 20.7 11 Norte 22 Nordeste 0 -- -- 31
2019-03-24 13:00:00 19.7 8 Nordeste 19 Norte 0 -- -- 32
2019-03-24 12:00:00 18.3 7 Nordeste 15 Norte 0 -- -- 36
2019-03-24 11:00:00 16.8 8 Nordeste 16 Nordeste 0 -- -- 39
2019-03-24 10:00:00 16.4 5 Este 11 Este 0 -- -- 41
2019-03-24 09:00:00 12.8 5 Oeste 10 Oeste 0 -- -- 46
2019-03-24 08:00:00 7.9 3 Oeste 11 Oeste 0 -- -- 58
2019-03-24 07:00:00 6.6 8 Oeste 12 Oeste 0 -- -- 61
2019-03-24 06:00:00 7.8 5 Oeste 10 Sudoeste 0 -- -- 56
2019-03-24 05:00:00 8.4 4 Oeste 9 Oeste 0 -- -- 54
2019-03-24 04:00:00 9 7 Oeste 13 Oeste 0 -- -- 51
2019-03-24 03:00:00 9.5 3 Oeste 13 Oeste 0 -- -- 49
2019-03-24 02:00:00 10.2 4 Oeste 14 Oeste 0 -- -- 46
2019-03-24 01:00:00 10.6 2 Sur 10 Oeste 0 -- -- 47
2019-03-24 00:00:00 10.9 0 Calma 14 Oeste 0 -- -- 47
2019-03-23 23:00:00 10.3 6 Oeste 16 Oeste 0 -- -- 49
2019-03-23 22:00:00 10.4 7 Oeste 14 Oeste 0 -- -- 49
2019-03-23 21:00:00 11.3 8 Oeste 12 Oeste 0 -- -- 46
2019-03-23 20:00:00 14.4 4 Oeste 8 Este 0 -- -- 40
2019-03-23 19:00:00 19.1 5 Sudeste 15 Este 0 -- -- 29
2019-03-23 18:00:00 20 8 Sur 21 Este 0 -- -- 26
2019-03-23 17:00:00 20.8 9 Sudeste 23 Este 0 -- -- 25
2019-03-23 16:00:00 20.6 12 Este 22 Este 0 -- -- 28
2019-03-23 15:00:00 20.5 12 Este 22 Este 0 -- -- 30
2019-03-23 14:00:00 19.2 11 Nordeste 19 Este 0 -- -- 34
2019-03-23 13:00:00 18.2 6 Nordeste 17 Nordeste 0 -- -- 38
2019-03-23 12:00:00 17.2 7 Nordeste 15 Nordeste 0 -- -- 40
2019-03-23 11:00:00 16.5 6 Nordeste 12 Este 0 -- -- 41
2019-03-23 10:00:00 14.1 6 Este 9 Este 0 -- -- 48
2019-03-23 09:00:00 10.5 2 Oeste 6 Oeste 0 -- -- 55
2019-03-23 08:00:00 6.5 3 Sudoeste 9 Oeste 0 -- -- 67
2019-03-23 07:00:00 5.9 2 Sudoeste 9 Sudoeste 0 -- -- 67
2019-03-23 06:00:00 6.3 3 Oeste 13 Oeste 0 -- -- 65
2019-03-23 05:00:00 7.6 5 Oeste 21 Oeste 0 -- -- 60
2019-03-23 04:00:00 7.4 8 Oeste 17 Oeste 0 -- -- 61
2019-03-23 03:00:00 7 6 Oeste 11 Oeste 0 -- -- 63
2019-03-23 02:00:00 6.8 4 Oeste 8 Oeste 0 -- -- 62
2019-03-23 01:00:00 7.9 2 Sudeste 11 Oeste 0 -- -- 58
2019-03-23 00:00:00 8.3 4 Oeste 11 Oeste 0 -- -- 57
2019-03-22 23:00:00 8.6 7 Oeste 10 Oeste 0 -- -- 56
2019-03-22 22:00:00 9.6 6 Oeste 13 Oeste 0 -- -- 53
2019-03-22 21:00:00 10.4 5 Oeste 10 Oeste 0 -- -- 49
2019-03-22 20:00:00 13.8 8 Sudoeste 13 Sudeste 0 -- -- 40
2019-03-22 19:00:00 16.4 7 Sudeste 22 Este 0 -- -- 34
2019-03-22 18:00:00 17.3 11 Este 31 Este 0 -- -- 32
2019-03-22 17:00:00 17.9 10 Sudeste 25 Sudeste 0 -- -- 31
2019-03-22 16:00:00 17.9 13 Sudeste 29 Sudeste 0 -- -- 29
2019-03-22 15:00:00 18.1 10 Sudeste 29 Este 0 -- -- 28
2019-03-22 14:00:00 17.2 10 Este 30 Este 0 -- -- 29
2019-03-22 13:00:00 15.9 10 Este 22 Nordeste 0 -- -- 32
2019-03-22 12:00:00 13.9 9 Nordeste 17 Nordeste 0 -- -- 35
2019-03-22 11:00:00 12.1 7 Nordeste 14 Este 0 -- -- 36
2019-03-22 10:00:00 11.3 6 Este 11 Nordeste 0 -- -- 39
2019-03-22 09:00:00 8.6 2 Nordeste 8 Noroeste 0 -- -- 47
2019-03-22 08:00:00 3.7 0 Calma 9 Oeste 0 -- -- 56
2019-03-22 07:00:00 3.5 4 Sudoeste 14 Oeste 0 -- -- 52
2019-03-22 06:00:00 3.1 6 Oeste 15 Sudoeste 0 -- -- 54
2019-03-22 05:00:00 2.7 5 Oeste 8 Oeste 0 -- -- 56
2019-03-22 04:00:00 3.5 3 Oeste 9 Oeste 0 -- -- 53
2019-03-22 03:00:00 3.9 5 Oeste 12 Sudoeste 0 -- -- 51
2019-03-22 02:00:00 4.6 4 Sudoeste 12 Oeste 0 -- -- 49
2019-03-22 01:00:00 4.7 6 Oeste 12 Sudoeste 0 -- -- 49
2019-03-22 00:00:00 5.2 4 Oeste 13 Oeste 0 -- -- 48
2019-03-21 23:00:00 5.5 5 Oeste 12 Sudoeste 0 -- -- 50
2019-03-21 22:00:00 6.3 0 Calma 12 Oeste 0 -- -- 53
2019-03-21 21:00:00 7 10 Oeste 13 Oeste 0 -- -- 54
2019-03-21 20:00:00 10.3 4 Sudoeste 10 Este 0 -- -- 43
2019-03-21 19:00:00 13.4 8 Este 13 Nordeste 0 -- -- 35
2019-03-21 18:00:00 14.6 4 Este 13 Nordeste 0 -- -- 33
2019-03-21 17:00:00 15.2 5 Noroeste 13 Sudoeste 0 -- -- 32
2019-03-21 16:00:00 14.4 6 Norte 15 Nordeste 0 -- -- 33
2019-03-21 15:00:00 14.1 10 Este 18 Este 0 -- -- 35
2019-03-21 14:00:00 13.6 11 Nordeste 22 Nordeste 0 -- -- 35
2019-03-21 13:00:00 12.6 10 Nordeste 24 Nordeste 0 -- -- 37
2019-03-21 12:00:00 12.4 12 Norte 24 Nordeste 0 -- -- 38
2019-03-21 11:00:00 11.2 13 Norte 27 Norte 0 -- -- 43
2019-03-21 10:00:00 10.1 10 Norte 20 Noroeste 0 -- -- 46
2019-03-21 09:00:00 7.6 7 Oeste 15 Oeste 0 -- -- 55
2019-03-21 08:00:00 3 10 Oeste 19 Oeste 0 -- -- 69
2019-03-21 07:00:00 2.1 9 Oeste 15 Oeste 0 -- -- 71
2019-03-21 06:00:00 2.6 12 Oeste 17 Oeste 0 -- -- 69
2019-03-21 05:00:00 3 10 Oeste 15 Oeste 0 -- -- 69
2019-03-21 04:00:00 3.3 10 Oeste 21 Oeste 0 -- -- 69
2019-03-21 03:00:00 4 10 Oeste 19 Oeste 0 -- -- 67
2019-03-21 02:00:00 4.3 10 Oeste 19 Oeste 0 -- -- 66
2019-03-21 01:00:00 4.3 8 Oeste 15 Sudoeste 0 -- -- 65
2019-03-21 00:00:00 4.8 7 Oeste 14 Oeste 0 -- -- 63
2019-03-20 23:00:00 5.7 9 Oeste 21 Oeste 0 -- -- 60
2019-03-20 22:00:00 6.7 10 Oeste 32 Noroeste 0 -- -- 58
2019-03-20 21:00:00 7.6 15 Noroeste 30 Noroeste 0 -- -- 55
2019-03-20 20:00:00 8.5 16 Noroeste 34 Noroeste 0 -- -- 52
2019-03-20 19:00:00 10.6 15 Norte 30 Noroeste 0 -- -- 43
2019-03-20 18:00:00 12.6 18 Norte 35 Norte 0 -- -- 34
2019-03-20 17:00:00 13.7 18 Norte 37 Noroeste 0 -- -- 31
2019-03-20 16:00:00 13.9 19 Norte 36 Noroeste 0 -- -- 31
2019-03-20 15:00:00 13.8 18 Norte 40 Norte 0 -- -- 32
2019-03-20 14:00:00 13.2 21 Noroeste 41 Norte 0 -- -- 35
2019-03-20 13:00:00 12.8 17 Norte 39 Norte 0 -- -- 36
2019-03-20 12:00:00 11.5 20 Norte 48 Noroeste 0 -- -- 41
2019-03-20 11:00:00 10.4 22 Norte 44 Noroeste 0 -- -- 47
2019-03-20 10:00:00 9.1 24 Norte 43 Norte 0 -- -- 51
2019-03-20 09:00:00 7.9 20 Noroeste 42 Noroeste 0 -- -- 56
2019-03-20 08:00:00 5.7 13 Noroeste 26 Noroeste 0 -- -- 66
2019-03-20 07:00:00 5.2 15 Noroeste 31 Noroeste 0 -- -- 68
2019-03-20 06:00:00 4.9 10 Noroeste 25 Noroeste 0 -- -- 71
2019-03-20 05:00:00 4.7 7 Oeste 24 Noroeste 0 -- -- 73
2019-03-20 04:00:00 5.1 10 Noroeste 21 Noroeste 0 -- -- 72
2019-03-20 03:00:00 5.5 15 Noroeste 32 Noroeste 0 -- -- 70
2019-03-20 02:00:00 5.6 15 Noroeste 29 Noroeste 0 -- -- 69
2019-03-20 01:00:00 5.8 14 Noroeste 30 Noroeste 0 -- -- 67
2019-03-20 00:00:00 6.2 19 Noroeste 39 Noroeste 0 -- -- 65
2019-03-19 23:00:00 6.7 15 Noroeste 43 Noroeste 0 -- -- 62
2019-03-19 22:00:00 6.3 14 Noroeste 31 Noroeste 0 -- -- 62
2019-03-19 21:00:00 6.7 16 Noroeste 32 Noroeste 0 -- -- 63
2019-03-19 20:00:00 7.6 17 Noroeste 48 Noroeste 0 -- -- 58
2019-03-19 19:00:00 8.6 27 Norte 53 Noroeste 0 -- -- 56
2019-03-19 18:00:00 10 30 Norte 58 Norte 0 -- -- 52
2019-03-19 17:00:00 11.2 30 Norte 63 Norte 0 -- -- 48
2019-03-19 16:00:00 12.1 32 Norte 53 Norte 0 -- -- 47
2019-03-19 15:00:00 11.7 32 Norte 52 Noroeste 0 -- -- 50
2019-03-19 14:00:00 11.3 26 Norte 43 Norte 0 -- -- 54
2019-03-19 13:00:00 10.9 17 Norte 42 Norte 0 -- -- 61
2019-03-19 12:00:00 10.7 21 Norte 41 Norte 0 -- -- 63
2019-03-19 11:00:00 10.3 21 Norte 39 Norte 0 -- -- 60
2019-03-19 10:00:00 9.3 21 Norte 41 Norte 0 -- -- 63
2019-03-19 09:00:00 8.1 20 Norte 36 Noroeste 0 -- -- 66
2019-03-19 08:00:00 6.8 13 Noroeste 26 Noroeste 0 -- -- 70
2019-03-19 07:00:00 6.4 11 Noroeste 22 Noroeste 0 -- -- 70
2019-03-19 06:00:00 5.9 6 Noroeste 19 Noroeste 0 -- -- 71
2019-03-19 05:00:00 6.6 11 Noroeste 27 Noroeste 0 -- -- 69
2019-03-19 04:00:00 7 18 Noroeste 32 Noroeste 0 -- -- 67
2019-03-19 03:00:00 6.8 10 Noroeste 21 Noroeste 0 -- -- 67
2019-03-19 02:00:00 7.1 14 Noroeste 25 Noroeste 0 -- -- 67
2019-03-19 01:00:00 7.3 14 Noroeste 35 Noroeste 0 -- -- 65
2019-03-19 00:00:00 6.7 10 Noroeste 28 Noroeste 0 -- -- 67